createdAt,value
2018-10-07T00:02:54.752Z,45.87
2018-10-07T00:12:58.117Z,51.63
2018-10-07T00:23:01.499Z,53.53
2018-10-07T00:33:04.982Z,54.07
2018-10-07T00:43:08.359Z,54.30
2018-10-07T00:53:11.699Z,53.20
2018-10-07T01:03:15.154Z,50.63
2018-10-07T01:13:18.480Z,45.17
2018-10-07T01:23:21.830Z,38.90
2018-10-07T01:33:25.741Z,37.43
2018-10-07T01:43:29.113Z,35.97
2018-10-07T01:53:33.116Z,26.83
2018-10-07T02:03:36.600Z,24.60
2018-10-07T02:13:39.977Z,20.97
2018-10-07T02:23:46.819Z,15.87
2018-10-07T02:33:50.454Z,13.83
2018-10-07T02:43:53.848Z,12.20
2018-10-07T02:53:58.000Z,10.93
2018-10-07T03:04:01.783Z,10.03
2018-10-07T03:14:05.111Z,9.18
2018-10-07T03:24:08.534Z,7.23
2018-10-07T03:34:12.741Z,6.35
2018-10-07T03:44:16.221Z,5.80
2018-10-07T03:54:19.600Z,4.63
2018-10-07T04:04:22.931Z,3.42
2018-10-07T04:14:26.257Z,3.93
2018-10-07T04:24:31.881Z,3.30
2018-10-07T04:34:35.309Z,2.53
2018-10-07T04:44:38.780Z,2.47
2018-10-07T04:54:42.230Z,2.17
2018-10-07T05:04:45.574Z,2.57
2018-10-07T05:14:48.969Z,1.83
2018-10-07T05:24:53.068Z,1.80
2018-10-07T05:35:04.451Z,1.60
2018-10-07T05:45:07.845Z,1.93
2018-10-07T05:55:11.426Z,1.33
2018-10-07T06:05:14.928Z,1.40
2018-10-07T06:15:23.899Z,1.60
2018-10-07T06:25:27.568Z,1.13
2018-10-07T06:35:30.960Z,1.43
2018-10-07T06:45:34.462Z,1.70
2018-10-07T06:55:37.891Z,1.52
2018-10-07T07:05:47.277Z,1.33
2018-10-07T07:15:50.599Z,1.53
2018-10-07T07:26:00.347Z,1.27
2018-10-07T07:36:06.208Z,1.03
2018-10-07T07:46:09.577Z,1.23
2018-10-07T07:56:13.149Z,0.90
2018-10-07T08:06:16.458Z,1.50
2018-10-07T08:16:19.971Z,1.40
2018-10-07T08:26:27.151Z,1.27
2018-10-07T08:36:30.558Z,1.30
2018-10-07T08:46:34.333Z,1.20
2018-10-07T08:56:42.059Z,1.10
2018-10-07T09:06:45.407Z,0.80
2018-10-07T09:16:48.868Z,1.17
2018-10-07T09:26:52.282Z,1.10
2018-10-07T09:36:56.125Z,0.93
2018-10-07T09:46:59.535Z,0.90
2018-10-07T09:57:03.898Z,0.80
2018-10-07T10:07:07.427Z,1.53
2018-10-07T10:17:13.508Z,1.30
2018-10-07T10:27:20.545Z,1.10
2018-10-07T10:37:28.442Z,1.73
2018-10-07T10:47:42.090Z,0.80
2018-10-07T10:57:47.723Z,1.17
2018-10-07T11:07:54.550Z,0.90
2018-10-07T11:18:03.840Z,1.10
2018-10-07T11:28:18.668Z,1.00
2018-10-07T11:38:29.635Z,0.67
2018-10-07T11:48:38.597Z,0.90
2018-10-07T11:58:42.027Z,0.93
2018-10-07T12:08:45.389Z,0.93
2018-10-07T12:18:48.765Z,0.80
2018-10-07T12:28:52.121Z,0.83
2018-10-07T12:38:55.447Z,1.13
2018-10-07T12:48:59.412Z,0.90
2018-10-07T12:59:02.759Z,1.00
2018-10-07T13:09:08.020Z,1.10
2018-10-07T13:19:11.468Z,1.10
2018-10-07T13:29:14.940Z,1.60
2018-10-07T13:39:18.356Z,0.73
2018-10-07T13:49:21.708Z,1.50
2018-10-07T13:59:25.095Z,1.10
2018-10-07T14:09:28.423Z,0.90
2018-10-07T14:19:31.761Z,0.80
2018-10-07T14:29:35.116Z,1.47
2018-10-07T14:39:42.487Z,1.50
2018-10-07T14:49:45.824Z,1.30
2018-10-07T14:59:49.212Z,1.90
2018-10-07T15:09:52.568Z,0.80
2018-10-07T15:19:56.125Z,0.90
2018-10-07T15:29:59.704Z,0.77
2018-10-07T15:40:04.042Z,1.00
2018-10-07T15:50:07.608Z,1.03
2018-10-07T16:00:11.026Z,1.03
2018-10-07T16:10:14.385Z,1.20
2018-10-07T16:20:18.120Z,1.30
2018-10-07T16:30:21.430Z,1.20
2018-10-07T16:40:24.878Z,1.90
2018-10-07T16:50:28.443Z,1.90
2018-10-07T17:00:32.306Z,1.87
2018-10-07T17:10:40.764Z,1.80
2018-10-07T17:20:44.116Z,2.20
2018-10-07T17:30:47.581Z,3.53
2018-10-07T17:40:51.127Z,1.87
2018-10-07T18:02:00.882Z,2.20
2018-10-07T18:12:07.730Z,2.03
2018-10-07T18:22:17.711Z,1.90
2018-10-07T18:32:21.093Z,1.80
2018-10-07T18:42:24.438Z,1.80
2018-10-07T18:52:27.864Z,1.63
2018-10-07T19:02:32.788Z,2.23
2018-10-07T19:12:36.953Z,2.30
2018-10-07T19:22:45.861Z,2.57
2018-10-07T19:32:49.198Z,2.33
2018-10-07T19:42:52.706Z,2.80
2018-10-07T19:52:56.215Z,2.60
2018-10-07T20:02:59.781Z,2.63
2018-10-07T20:13:03.651Z,4.30
2018-10-07T20:23:08.588Z,4.80
2018-10-07T20:33:11.972Z,4.23
2018-10-07T20:43:15.586Z,4.43
2018-10-07T20:53:18.925Z,4.17
2018-10-07T21:03:22.321Z,3.73
2018-10-07T21:13:25.717Z,3.93
2018-10-07T21:23:29.125Z,3.40
2018-10-07T21:33:32.477Z,4.07
2018-10-07T21:43:35.867Z,4.10
2018-10-07T21:53:39.783Z,3.37
2018-10-07T22:03:43.978Z,3.47
2018-10-07T22:13:47.602Z,3.80
2018-10-07T22:23:50.943Z,3.13
2018-10-07T22:33:55.289Z,3.57
2018-10-07T22:43:59.023Z,4.10
2018-10-07T22:54:02.366Z,3.83
2018-10-07T23:04:05.846Z,4.20
2018-10-07T23:14:09.591Z,3.80
2018-10-07T23:24:13.003Z,3.93
2018-10-07T23:34:17.110Z,3.87
2018-10-07T23:44:20.454Z,3.80
2018-10-07T23:54:23.953Z,3.73
